createdAt,value
2018-05-31T00:01:26.899Z,19.40
2018-05-31T00:03:53.125Z,19.37
2018-05-31T00:06:21.311Z,21.23
2018-05-31T00:08:47.555Z,20.53
2018-05-31T00:11:13.808Z,19.47
2018-05-31T00:13:40.043Z,19.40
2018-05-31T00:16:07.021Z,20.30
2018-05-31T00:18:33.248Z,17.77
2018-05-31T00:20:59.503Z,18.47
2018-05-31T00:23:25.707Z,18.90
2018-05-31T00:25:51.953Z,17.53
2018-05-31T00:28:18.197Z,18.60
2018-05-31T00:30:44.418Z,17.77
2018-05-31T00:33:11.063Z,19.73
2018-05-31T00:35:37.334Z,18.77
2018-05-31T00:38:03.580Z,20.37
2018-05-31T00:40:29.867Z,18.03
2018-05-31T00:42:56.865Z,20.60
2018-05-31T00:45:23.117Z,19.07
2018-05-31T00:47:49.329Z,19.83
2018-05-31T00:50:15.617Z,20.30
2018-05-31T00:52:41.855Z,20.87
2018-05-31T00:55:08.096Z,21.07
2018-05-31T00:57:34.341Z,20.00
2018-05-31T01:00:00.563Z,19.93
2018-05-31T01:02:26.804Z,18.40
2018-05-31T01:04:53.056Z,20.67
2018-05-31T01:07:19.304Z,21.10
2018-05-31T01:09:45.530Z,22.50
2018-05-31T01:12:11.829Z,19.70
2018-05-31T01:14:38.066Z,20.03
2018-05-31T01:17:04.289Z,18.37
2018-05-31T01:19:31.296Z,19.23
2018-05-31T01:21:57.515Z,19.43
2018-05-31T01:24:23.752Z,20.73
2018-05-31T01:26:50.166Z,19.23
2018-05-31T01:29:17.114Z,21.23
2018-05-31T01:31:44.089Z,18.87
2018-05-31T01:34:11.856Z,18.70
2018-05-31T01:36:38.834Z,20.60
2018-05-31T01:39:06.906Z,19.47
2018-05-31T01:41:33.274Z,18.47
2018-05-31T01:43:59.526Z,18.07
2018-05-31T01:46:26.526Z,19.07
2018-05-31T01:48:52.774Z,18.10
2018-05-31T01:51:19.010Z,19.43
2018-05-31T01:53:45.292Z,18.70
2018-05-31T01:56:11.531Z,18.73
2018-05-31T01:58:37.750Z,20.60
2018-05-31T02:01:04.012Z,19.40
2018-05-31T02:03:30.525Z,20.00
2018-05-31T02:05:57.537Z,18.53
2018-05-31T02:08:23.789Z,19.00
2018-05-31T02:10:50.051Z,19.63
2018-05-31T02:13:16.284Z,20.87
2018-05-31T02:15:42.511Z,22.00
2018-05-31T02:18:08.766Z,20.93
2018-05-31T02:20:34.992Z,19.67
2018-05-31T02:23:01.228Z,20.87
2018-05-31T02:25:27.484Z,20.87
2018-05-31T02:27:53.716Z,20.43
2018-05-31T02:30:19.937Z,21.87
2018-05-31T02:32:46.189Z,19.70
2018-05-31T02:35:12.431Z,19.37
2018-05-31T02:37:38.679Z,21.70
2018-05-31T02:40:04.947Z,21.00
2018-05-31T02:42:31.948Z,21.17
2018-05-31T02:44:58.165Z,22.70
2018-05-31T02:47:24.531Z,20.73
2018-05-31T02:49:50.743Z,21.97
2018-05-31T02:52:16.971Z,21.60
2018-05-31T02:54:43.977Z,20.70
2018-05-31T02:57:10.209Z,21.73
2018-05-31T02:59:36.436Z,18.10
2018-05-31T03:02:02.699Z,19.73
2018-05-31T03:04:28.940Z,21.40
2018-05-31T03:06:55.178Z,22.37
2018-05-31T03:09:21.426Z,20.40
2018-05-31T03:11:47.657Z,19.10
2018-05-31T03:14:13.869Z,22.07
2018-05-31T03:16:41.010Z,20.50
2018-05-31T03:19:07.279Z,19.60
2018-05-31T03:21:33.564Z,20.93
2018-05-31T03:23:59.964Z,21.80
2018-05-31T03:26:26.178Z,21.73
2018-05-31T03:28:52.391Z,21.80
2018-05-31T03:31:18.647Z,21.33
2018-05-31T03:33:44.874Z,19.80
2018-05-31T03:36:11.115Z,19.80
2018-05-31T03:38:37.371Z,19.90
2018-05-31T03:41:03.632Z,22.50
2018-05-31T03:43:30.591Z,20.53
2018-05-31T03:45:57.022Z,21.63
2018-05-31T03:48:23.248Z,20.50
2018-05-31T03:50:49.472Z,21.47
2018-05-31T03:53:15.714Z,21.73
2018-05-31T03:55:42.685Z,21.03
2018-05-31T03:58:08.918Z,22.00
2018-05-31T04:00:35.153Z,23.87
2018-05-31T04:03:01.378Z,24.00
2018-05-31T04:05:27.634Z,23.27
2018-05-31T04:07:53.914Z,22.63
2018-05-31T04:10:20.910Z,23.33
2018-05-31T04:12:47.154Z,23.50
2018-05-31T04:15:13.424Z,21.83
2018-05-31T04:17:39.652Z,23.00
2018-05-31T04:20:05.900Z,22.80
2018-05-31T04:22:32.158Z,23.00
2018-05-31T04:24:58.378Z,24.87
2018-05-31T04:27:24.601Z,22.83
2018-05-31T04:29:50.857Z,23.70
2018-05-31T04:32:17.102Z,23.47
2018-05-31T04:34:43.333Z,22.03
2018-05-31T04:37:09.607Z,23.27
2018-05-31T04:39:36.665Z,23.57
2018-05-31T04:42:02.917Z,21.80
2018-05-31T04:44:29.927Z,23.10
2018-05-31T04:46:56.168Z,23.40
2018-05-31T04:49:22.418Z,22.50
2018-05-31T04:51:48.661Z,22.60
2018-05-31T04:54:14.887Z,22.43
2018-05-31T04:56:41.117Z,23.13
2018-05-31T04:59:07.373Z,24.97
2018-05-31T05:01:33.613Z,23.00
2018-05-31T05:03:59.835Z,24.17
2018-05-31T05:06:26.073Z,23.80
2018-05-31T05:08:52.287Z,21.30
2018-05-31T05:11:19.282Z,22.60
2018-05-31T05:13:45.549Z,22.00
2018-05-31T05:16:11.786Z,21.20
2018-05-31T05:18:38.011Z,21.43
2018-05-31T05:21:04.279Z,18.50
2018-05-31T05:23:30.497Z,20.80
2018-05-31T05:25:56.719Z,21.73
2018-05-31T05:28:22.970Z,22.63
2018-05-31T05:30:49.226Z,23.53
2018-05-31T05:33:15.474Z,19.43
2018-05-31T05:35:41.734Z,21.23
2018-05-31T05:38:07.956Z,22.07
2018-05-31T05:40:34.171Z,20.43
2018-05-31T05:43:00.406Z,21.03
2018-05-31T05:45:26.640Z,19.87
2018-05-31T05:47:52.876Z,22.43
2018-05-31T05:50:19.273Z,22.17
2018-05-31T05:52:45.505Z,19.40
2018-05-31T05:55:11.734Z,18.40
2018-05-31T05:57:38.122Z,20.37
2018-05-31T06:00:05.120Z,19.57
2018-05-31T06:02:31.340Z,19.90
2018-05-31T06:04:57.597Z,19.50
2018-05-31T06:07:23.818Z,22.17
2018-05-31T06:09:50.095Z,22.07
2018-05-31T06:12:16.289Z,19.70
2018-05-31T06:14:42.542Z,21.73
2018-05-31T06:17:08.754Z,20.87
2018-05-31T06:19:35.764Z,22.70
2018-05-31T06:22:02.040Z,21.00
2018-05-31T06:24:28.302Z,20.30
2018-05-31T06:26:54.566Z,21.10
2018-05-31T06:29:20.792Z,21.00
2018-05-31T06:31:47.018Z,22.00
2018-05-31T06:34:14.008Z,21.80
2018-05-31T06:36:40.227Z,21.13
2018-05-31T06:39:07.218Z,21.57
2018-05-31T06:41:33.448Z,19.57
2018-05-31T06:43:59.667Z,19.30
2018-05-31T06:46:25.900Z,21.90
2018-05-31T06:48:52.138Z,19.67
2018-05-31T06:51:18.379Z,21.50
2018-05-31T06:53:44.605Z,20.10
2018-05-31T06:56:10.884Z,19.87
2018-05-31T06:58:37.878Z,20.73
2018-05-31T07:01:04.104Z,20.80
2018-05-31T07:03:30.485Z,23.00
2018-05-31T07:05:56.700Z,21.33
2018-05-31T07:08:22.923Z,22.37
2018-05-31T07:10:49.177Z,22.87
2018-05-31T07:13:15.373Z,22.47
2018-05-31T07:15:41.586Z,21.57
2018-05-31T07:18:07.824Z,21.97
2018-05-31T07:20:34.064Z,19.60
2018-05-31T07:23:00.276Z,21.90
2018-05-31T07:25:26.515Z,22.10
2018-05-31T07:27:52.727Z,20.97
2018-05-31T07:30:18.991Z,20.03
2018-05-31T07:32:45.222Z,18.00
2018-05-31T07:35:11.456Z,23.07
2018-05-31T07:37:38.452Z,21.97
2018-05-31T07:40:04.719Z,22.63
2018-05-31T07:42:30.931Z,22.47
2018-05-31T07:44:57.183Z,22.07
2018-05-31T07:47:23.470Z,21.23
2018-05-31T07:49:49.699Z,22.97
2018-05-31T07:52:15.903Z,21.93
2018-05-31T07:54:42.147Z,20.37
2018-05-31T07:57:08.362Z,21.00
2018-05-31T07:59:34.599Z,21.13
2018-05-31T08:02:00.851Z,22.13
2018-05-31T08:04:27.091Z,20.47
2018-05-31T08:06:53.302Z,19.53
2018-05-31T08:09:19.562Z,20.37
2018-05-31T08:11:45.769Z,20.50
2018-05-31T08:14:11.986Z,19.63
2018-05-31T08:16:38.242Z,19.27
2018-05-31T08:19:04.475Z,20.67
2018-05-31T08:21:30.698Z,21.40
2018-05-31T08:23:56.941Z,18.70
2018-05-31T08:26:23.161Z,20.00
2018-05-31T08:28:49.378Z,19.00
2018-05-31T08:31:15.627Z,16.90
2018-05-31T08:33:41.847Z,16.20
2018-05-31T08:36:08.084Z,16.23
2018-05-31T08:38:34.382Z,17.30
2018-05-31T08:41:00.596Z,15.67
2018-05-31T08:43:26.826Z,15.17
2018-05-31T08:45:53.076Z,16.00
2018-05-31T08:48:19.297Z,16.60
2018-05-31T08:50:45.516Z,17.30
2018-05-31T08:53:11.775Z,16.30
2018-05-31T08:55:38.037Z,15.97
2018-05-31T08:58:04.256Z,17.37
2018-05-31T09:00:30.520Z,13.77
2018-05-31T09:02:56.742Z,15.60
2018-05-31T09:05:22.966Z,15.33
2018-05-31T09:07:49.216Z,15.50
2018-05-31T09:10:15.444Z,15.83
2018-05-31T09:12:41.678Z,16.60
2018-05-31T09:15:08.695Z,15.60
2018-05-31T09:17:34.960Z,13.73
2018-05-31T09:20:01.189Z,12.23
2018-05-31T09:22:27.482Z,13.70
2018-05-31T09:24:53.741Z,14.20
2018-05-31T09:27:19.959Z,14.00
2018-05-31T09:29:46.201Z,13.87
2018-05-31T09:32:12.412Z,12.90
2018-05-31T09:34:38.639Z,12.40
2018-05-31T09:37:04.896Z,11.13
2018-05-31T09:39:31.178Z,11.70
2018-05-31T09:41:57.407Z,12.50
2018-05-31T09:44:23.670Z,10.30
2018-05-31T09:46:49.882Z,11.17
2018-05-31T09:49:16.093Z,12.20
2018-05-31T09:51:42.363Z,13.00
2018-05-31T09:54:09.359Z,11.20
2018-05-31T09:56:35.593Z,12.00
2018-05-31T09:59:01.866Z,11.73
2018-05-31T10:01:28.102Z,11.10
2018-05-31T10:03:54.320Z,11.53
2018-05-31T10:06:20.719Z,11.80
2018-05-31T10:08:46.955Z,10.93
2018-05-31T10:11:13.189Z,13.20
2018-05-31T10:13:39.450Z,12.97
2018-05-31T10:16:05.693Z,12.63
2018-05-31T10:18:31.919Z,13.60
2018-05-31T10:20:58.177Z,12.13
2018-05-31T10:23:24.413Z,11.17
2018-05-31T10:25:50.633Z,11.50
2018-05-31T10:28:17.772Z,11.00
2018-05-31T10:30:43.997Z,13.20
2018-05-31T10:33:10.255Z,10.03
2018-05-31T10:35:36.511Z,13.30
2018-05-31T10:38:03.231Z,13.87
2018-05-31T10:40:29.471Z,12.47
2018-05-31T10:42:55.742Z,12.37
2018-05-31T10:45:21.972Z,11.60
2018-05-31T10:47:48.211Z,11.30
2018-05-31T10:50:14.455Z,11.57
2018-05-31T10:52:40.666Z,14.57
2018-05-31T10:55:06.910Z,12.10
2018-05-31T10:57:33.164Z,12.03
2018-05-31T10:59:59.401Z,11.67
2018-05-31T11:02:25.661Z,14.03
2018-05-31T11:04:52.662Z,12.07
2018-05-31T11:07:18.879Z,10.93
2018-05-31T11:09:45.099Z,14.50
2018-05-31T11:12:11.345Z,11.00
2018-05-31T11:14:37.575Z,12.60
2018-05-31T11:17:03.826Z,11.97
2018-05-31T11:19:30.070Z,12.57
2018-05-31T11:21:56.305Z,14.33
2018-05-31T11:24:22.526Z,12.00
2018-05-31T11:26:48.785Z,12.70
2018-05-31T11:29:15.027Z,11.60
2018-05-31T11:31:41.252Z,13.73
2018-05-31T11:34:07.520Z,10.93
2018-05-31T11:36:34.477Z,11.60
2018-05-31T11:39:00.716Z,12.23
2018-05-31T11:41:27.717Z,12.97
2018-05-31T11:43:53.959Z,10.73
2018-05-31T11:46:20.188Z,11.80
2018-05-31T11:48:46.443Z,11.60
2018-05-31T11:51:12.678Z,11.23
2018-05-31T11:53:38.905Z,11.00
2018-05-31T11:56:05.173Z,11.63
2018-05-31T11:58:31.416Z,11.23
2018-05-31T12:00:57.638Z,13.17
2018-05-31T12:03:23.899Z,11.17
2018-05-31T12:05:50.143Z,12.10
2018-05-31T12:08:16.389Z,10.50
2018-05-31T12:10:42.679Z,10.70
2018-05-31T12:13:08.930Z,11.10
2018-05-31T12:15:35.169Z,9.90
2018-05-31T12:18:01.435Z,9.90
2018-05-31T12:20:27.674Z,9.17
2018-05-31T12:22:53.892Z,11.63
2018-05-31T12:25:20.155Z,13.07
2018-05-31T12:27:46.403Z,12.37
2018-05-31T12:30:12.658Z,12.53
2018-05-31T12:32:38.928Z,12.97
2018-05-31T12:35:05.215Z,11.90
2018-05-31T12:37:31.443Z,13.60
2018-05-31T12:39:57.739Z,12.87
2018-05-31T12:42:23.951Z,11.83
2018-05-31T12:44:50.179Z,12.90
2018-05-31T12:47:16.570Z,12.23
2018-05-31T12:49:42.789Z,12.50
2018-05-31T12:52:09.035Z,11.23
2018-05-31T12:54:35.312Z,12.50
2018-05-31T12:57:01.524Z,13.97
2018-05-31T12:59:27.744Z,11.07
2018-05-31T13:01:54.002Z,12.10
2018-05-31T13:04:20.246Z,11.83
2018-05-31T13:06:46.489Z,11.80
2018-05-31T13:09:12.728Z,11.33
2018-05-31T13:11:38.966Z,10.97
2018-05-31T13:14:05.213Z,10.70
2018-05-31T13:16:31.488Z,10.93
2018-05-31T13:18:57.715Z,11.27
2018-05-31T13:21:24.670Z,11.00
2018-05-31T13:23:50.910Z,11.17
2018-05-31T13:26:17.145Z,10.30
2018-05-31T13:28:43.384Z,9.73
2018-05-31T13:31:09.628Z,10.17
2018-05-31T13:33:35.865Z,10.40
2018-05-31T13:36:02.875Z,9.97
2018-05-31T13:38:29.126Z,10.00
2018-05-31T13:40:55.396Z,10.83
2018-05-31T13:43:21.619Z,10.90
2018-05-31T13:45:48.063Z,10.50
2018-05-31T13:48:14.279Z,10.77
2018-05-31T13:50:40.487Z,10.23
2018-05-31T13:53:07.471Z,9.30
2018-05-31T13:55:33.698Z,9.30
2018-05-31T13:57:59.902Z,10.50
2018-05-31T14:00:26.145Z,10.13
2018-05-31T14:02:52.371Z,9.53
2018-05-31T14:05:18.615Z,9.67
2018-05-31T14:07:44.857Z,10.10
2018-05-31T14:10:11.073Z,9.43
2018-05-31T14:12:37.298Z,9.30
2018-05-31T14:15:03.581Z,9.40
2018-05-31T14:17:29.805Z,9.23
2018-05-31T14:19:56.018Z,9.00
2018-05-31T14:22:22.261Z,9.07
2018-05-31T14:24:48.462Z,8.83
2018-05-31T14:27:15.437Z,9.20
2018-05-31T14:29:41.676Z,9.40
2018-05-31T14:32:07.901Z,9.10
2018-05-31T14:34:34.857Z,9.33
2018-05-31T14:37:01.831Z,7.77
2018-05-31T14:39:28.782Z,7.67
2018-05-31T14:41:55.795Z,6.90
2018-05-31T14:44:22.057Z,7.43
2018-05-31T14:46:48.297Z,6.20
2018-05-31T14:49:14.535Z,5.30
2018-05-31T14:51:41.193Z,5.67
2018-05-31T14:54:07.453Z,6.17
2018-05-31T14:56:33.679Z,6.20
2018-05-31T14:58:59.959Z,5.20
2018-05-31T15:01:26.222Z,6.23
2018-05-31T15:03:52.463Z,6.13
2018-05-31T15:06:18.713Z,6.17
2018-05-31T15:08:44.946Z,6.30
2018-05-31T15:11:11.191Z,5.70
2018-05-31T15:13:37.475Z,6.73
2018-05-31T15:16:04.491Z,6.20
2018-05-31T15:18:30.716Z,6.20
2018-05-31T15:20:56.960Z,7.03
2018-05-31T15:23:23.204Z,6.87
2018-05-31T15:25:49.421Z,5.87
2018-05-31T15:28:15.658Z,6.90
2018-05-31T15:30:41.875Z,8.10
2018-05-31T15:33:08.114Z,6.40
2018-05-31T15:35:34.578Z,5.57
2018-05-31T15:38:00.784Z,5.80
2018-05-31T15:40:27.011Z,5.63
2018-05-31T15:42:53.296Z,6.40
2018-05-31T15:45:20.281Z,5.20
2018-05-31T15:47:46.509Z,5.90
2018-05-31T15:50:12.776Z,4.97
2018-05-31T15:52:39.020Z,5.53
2018-05-31T15:55:05.239Z,5.20
2018-05-31T15:57:31.484Z,5.40
2018-05-31T15:59:57.727Z,5.20
2018-05-31T16:02:23.996Z,5.20
2018-05-31T16:04:50.271Z,5.50
2018-05-31T16:07:17.246Z,6.27
2018-05-31T16:09:43.496Z,6.17
2018-05-31T16:12:09.794Z,6.40
2018-05-31T16:14:36.022Z,5.67
2018-05-31T16:17:02.254Z,5.90
2018-05-31T16:19:28.502Z,6.13
2018-05-31T16:21:54.724Z,6.40
2018-05-31T16:24:20.930Z,5.40
2018-05-31T16:26:47.198Z,7.40
2018-05-31T16:29:13.434Z,7.07
2018-05-31T16:31:39.657Z,6.30
2018-05-31T16:34:06.088Z,7.00
2018-05-31T16:36:32.307Z,6.00
2018-05-31T16:38:58.561Z,6.90
2018-05-31T16:41:25.569Z,7.53
2018-05-31T16:43:52.435Z,6.80
2018-05-31T16:46:18.656Z,6.67
2018-05-31T16:48:44.912Z,7.30
2018-05-31T16:51:11.160Z,6.90
2018-05-31T16:53:37.414Z,6.57
2018-05-31T16:56:03.669Z,5.20
2018-05-31T16:58:29.953Z,5.57
2018-05-31T17:00:56.199Z,4.90
2018-05-31T17:03:22.483Z,6.17
2018-05-31T17:05:48.746Z,5.80
2018-05-31T17:08:15.766Z,5.60
2018-05-31T17:10:42.027Z,6.30
2018-05-31T17:13:08.269Z,6.03
2018-05-31T17:15:34.517Z,6.33
2018-05-31T17:18:00.823Z,6.20
2018-05-31T17:20:27.065Z,5.40
2018-05-31T17:22:53.333Z,5.77
2018-05-31T17:25:19.664Z,5.30
2018-05-31T17:27:45.890Z,5.43
2018-05-31T17:30:12.135Z,6.60
2018-05-31T17:32:38.413Z,5.80
2018-05-31T17:35:05.420Z,6.30
2018-05-31T17:37:31.673Z,6.20
2018-05-31T17:39:57.977Z,5.20
2018-05-31T17:42:24.206Z,5.13
2018-05-31T17:44:50.682Z,5.50
2018-05-31T17:47:16.952Z,4.00
2018-05-31T17:49:43.206Z,4.33
2018-05-31T17:52:09.426Z,5.17
2018-05-31T17:54:35.698Z,5.27
2018-05-31T17:57:02.742Z,4.20
2018-05-31T17:59:29.018Z,5.73
2018-05-31T18:01:55.313Z,5.07
2018-05-31T18:04:21.577Z,4.50
2018-05-31T18:06:47.875Z,4.77
2018-05-31T18:09:14.244Z,5.30
2018-05-31T18:11:40.491Z,4.90
2018-05-31T18:14:06.759Z,5.40
2018-05-31T18:16:33.813Z,4.20
2018-05-31T18:19:00.811Z,4.23
2018-05-31T18:21:27.165Z,5.33
2018-05-31T18:23:53.447Z,4.63
2018-05-31T18:26:20.478Z,3.90
2018-05-31T18:28:46.782Z,4.77
2018-05-31T18:31:13.142Z,5.37
2018-05-31T18:33:39.467Z,4.60
2018-05-31T18:36:05.774Z,4.87
2018-05-31T18:38:32.136Z,4.70
2018-05-31T18:40:58.429Z,4.53
2018-05-31T18:43:24.727Z,4.03
2018-05-31T18:45:51.552Z,4.40
2018-05-31T18:48:17.857Z,5.13
2018-05-31T18:50:44.136Z,4.80
2018-05-31T18:53:10.458Z,4.60
2018-05-31T18:55:36.780Z,4.70
2018-05-31T18:58:03.084Z,4.83
2018-05-31T19:00:30.138Z,5.00
2018-05-31T19:02:56.455Z,5.10
2018-05-31T19:05:22.740Z,5.20
2018-05-31T19:07:49.174Z,4.83
2018-05-31T19:10:15.483Z,4.23
2018-05-31T19:12:47.690Z,4.23
2018-05-31T19:15:21.632Z,4.30
2018-05-31T19:17:41.204Z,4.60
2018-05-31T19:20:07.527Z,4.57
2018-05-31T19:22:33.925Z,5.10
2018-05-31T19:25:06.265Z,5.17
2018-05-31T19:27:33.296Z,5.07
2018-05-31T19:30:05.678Z,4.97
2018-05-31T19:32:32.067Z,5.03
2018-05-31T19:34:58.277Z,5.00
2018-05-31T19:37:24.607Z,5.67
2018-05-31T19:39:50.892Z,5.30
2018-05-31T19:42:23.979Z,5.07
2018-05-31T19:44:50.302Z,4.60
2018-05-31T19:47:16.632Z,4.70
2018-05-31T19:49:42.938Z,5.07
2018-05-31T19:52:15.273Z,6.20
2018-05-31T19:54:42.470Z,5.90
2018-05-31T19:57:08.781Z,6.20
2018-05-31T19:59:41.015Z,5.83
2018-05-31T20:02:28.151Z,5.60
2018-05-31T20:04:54.629Z,5.40
2018-05-31T20:07:20.978Z,5.13
2018-05-31T20:09:47.301Z,5.83
2018-05-31T20:12:13.609Z,5.80
2018-05-31T20:14:39.883Z,5.67
2018-05-31T20:17:06.175Z,6.43
2018-05-31T20:19:32.717Z,5.97
2018-05-31T20:21:59.751Z,6.63
2018-05-31T20:24:26.013Z,6.30
2018-05-31T20:26:53.062Z,6.43
2018-05-31T20:29:19.342Z,5.93
2018-05-31T20:31:45.662Z,7.00
2018-05-31T20:34:12.724Z,6.50
2018-05-31T20:36:39.056Z,7.30
2018-05-31T20:39:06.095Z,8.27
2018-05-31T20:41:32.407Z,7.27
2018-05-31T20:43:58.688Z,7.17
2018-05-31T20:46:25.195Z,7.70
2018-05-31T20:48:51.509Z,7.33
2018-05-31T20:51:17.804Z,7.30
2018-05-31T20:53:44.096Z,8.20
2018-05-31T20:56:10.472Z,8.67
2018-05-31T20:58:36.796Z,7.60
2018-05-31T21:01:03.060Z,8.13
2018-05-31T21:03:29.344Z,8.73
2018-05-31T21:05:55.568Z,7.70
2018-05-31T21:08:22.923Z,8.33
2018-05-31T21:10:49.214Z,7.50
2018-05-31T21:13:15.481Z,7.27
2018-05-31T21:15:41.761Z,7.97
2018-05-31T21:18:08.012Z,8.07
2018-05-31T21:20:34.256Z,8.50
2018-05-31T21:23:01.222Z,8.40
2018-05-31T21:25:27.565Z,7.70
2018-05-31T21:27:53.806Z,8.13
2018-05-31T21:30:20.780Z,7.57
2018-05-31T21:32:47.017Z,7.87
2018-05-31T21:35:13.247Z,7.73
2018-05-31T21:37:39.480Z,7.67
2018-05-31T21:40:06.501Z,8.70
2018-05-31T21:42:32.716Z,8.50
2018-05-31T21:44:58.941Z,8.17
2018-05-31T21:47:25.273Z,7.90
2018-05-31T21:49:52.235Z,7.97
2018-05-31T21:52:19.189Z,8.30
2018-05-31T21:54:46.191Z,8.60
2018-05-31T21:57:12.403Z,8.43
2018-05-31T21:59:38.619Z,8.30
2018-05-31T22:02:05.771Z,7.47
2018-05-31T22:04:32.754Z,8.17
2018-05-31T22:06:59.707Z,8.40
2018-05-31T22:09:25.976Z,8.07
2018-05-31T22:11:52.219Z,9.00
2018-05-31T22:14:18.424Z,7.10
2018-05-31T22:16:45.387Z,7.87
2018-05-31T22:19:11.653Z,8.03
2018-05-31T22:21:37.879Z,8.03
2018-05-31T22:24:04.149Z,8.90
2018-05-31T22:26:30.395Z,9.60
2018-05-31T22:28:56.618Z,8.83
2018-05-31T22:31:22.982Z,10.07
2018-05-31T22:33:49.187Z,8.20
2018-05-31T22:36:15.388Z,9.10
2018-05-31T22:38:41.642Z,8.60
2018-05-31T22:41:08.634Z,9.47
2018-05-31T22:43:34.840Z,9.87
2018-05-31T22:46:01.929Z,9.20
2018-05-31T22:48:29.220Z,8.63
2018-05-31T22:50:55.426Z,9.50
2018-05-31T22:53:21.668Z,8.33
2018-05-31T22:55:47.878Z,8.50
2018-05-31T22:58:14.089Z,8.87
2018-05-31T23:00:40.328Z,8.20
2018-05-31T23:03:06.572Z,8.97
2018-05-31T23:05:32.794Z,8.20
2018-05-31T23:07:59.018Z,9.07
2018-05-31T23:10:25.248Z,8.87
2018-05-31T23:12:51.475Z,8.13
2018-05-31T23:15:18.530Z,7.83
2018-05-31T23:17:45.502Z,8.60
2018-05-31T23:20:12.460Z,8.20
2018-05-31T23:22:38.703Z,7.97
2018-05-31T23:25:04.930Z,9.10
2018-05-31T23:27:31.883Z,8.30
2018-05-31T23:29:58.864Z,9.30
2018-05-31T23:32:25.082Z,8.60
2018-05-31T23:34:51.306Z,9.20
2018-05-31T23:37:17.671Z,9.37
2018-05-31T23:39:43.862Z,8.30
2018-05-31T23:42:10.065Z,8.73
2018-05-31T23:44:36.311Z,9.00
2018-05-31T23:47:02.553Z,8.60
2018-05-31T23:49:28.943Z,7.87
2018-05-31T23:51:55.249Z,8.20
2018-05-31T23:54:21.468Z,7.90
2018-05-31T23:56:47.677Z,8.60
2018-05-31T23:59:13.920Z,8.60
